createdAt,value
2017-06-25T00:00:16.438Z,4.23
2017-06-25T00:02:43.938Z,4.00
2017-06-25T00:05:11.410Z,4.80
2017-06-25T00:07:39.666Z,4.20
2017-06-25T00:10:07.137Z,3.50
2017-06-25T00:12:35.407Z,4.03
2017-06-25T00:15:12.587Z,4.20
2017-06-25T00:17:40.079Z,4.00
2017-06-25T00:20:07.555Z,3.93
2017-06-25T00:22:35.027Z,3.70
2017-06-25T00:25:02.516Z,4.67
2017-06-25T00:27:30.750Z,3.70
2017-06-25T00:29:58.246Z,4.40
2017-06-25T00:32:25.715Z,3.70
2017-06-25T00:34:53.206Z,4.27
2017-06-25T00:37:20.677Z,4.10
2017-06-25T00:39:48.170Z,4.33
2017-06-25T00:42:16.411Z,4.17
2017-06-25T00:44:43.902Z,3.93
2017-06-25T00:47:11.378Z,4.90
2017-06-25T00:49:38.867Z,4.40
2017-06-25T00:52:06.340Z,4.00
2017-06-25T00:54:42.595Z,4.43
2017-06-25T00:57:10.061Z,3.97
2017-06-25T00:59:37.559Z,4.50
2017-06-25T01:02:05.026Z,4.20
2017-06-25T01:04:32.543Z,3.57
2017-06-25T01:07:00.021Z,4.23
2017-06-25T01:09:27.510Z,3.77
2017-06-25T01:11:54.986Z,4.20
2017-06-25T01:14:23.267Z,4.17
2017-06-25T01:16:51.510Z,4.63
2017-06-25T01:19:18.981Z,3.93
2017-06-25T01:21:46.475Z,4.90
2017-06-25T01:24:13.948Z,4.33
2017-06-25T01:26:41.435Z,4.77
2017-06-25T01:29:08.913Z,5.10
2017-06-25T01:31:37.173Z,5.87
2017-06-25T01:34:04.646Z,4.60
2017-06-25T01:36:32.906Z,5.37
2017-06-25T01:39:01.150Z,4.80
2017-06-25T01:41:28.639Z,4.70
2017-06-25T01:43:56.881Z,4.53
2017-06-25T01:46:24.374Z,4.73
2017-06-25T01:48:52.618Z,4.37
2017-06-25T01:51:20.111Z,4.30
2017-06-25T01:53:47.608Z,4.57
2017-06-25T01:56:15.098Z,3.73
2017-06-25T01:58:42.571Z,5.07
2017-06-25T02:01:10.059Z,4.33
2017-06-25T02:03:37.530Z,4.70
2017-06-25T02:06:05.021Z,4.47
2017-06-25T02:08:32.490Z,3.93
2017-06-25T02:10:59.958Z,4.63
2017-06-25T02:13:27.458Z,5.00
2017-06-25T02:15:54.926Z,4.53
2017-06-25T02:18:22.419Z,4.53
2017-06-25T02:20:49.891Z,4.87
2017-06-25T02:23:17.385Z,4.83
2017-06-25T02:25:44.862Z,4.80
2017-06-25T02:28:12.350Z,4.40
2017-06-25T02:30:39.828Z,3.83
2017-06-25T02:33:07.314Z,4.30
2017-06-25T02:35:35.553Z,4.43
2017-06-25T02:38:03.043Z,4.10
2017-06-25T02:40:31.282Z,4.97
2017-06-25T02:42:58.779Z,4.63
2017-06-25T02:45:26.250Z,4.80
2017-06-25T02:47:53.749Z,4.23
2017-06-25T02:50:21.218Z,4.30
2017-06-25T02:52:48.706Z,4.20
2017-06-25T02:55:16.189Z,4.30
2017-06-25T02:57:43.681Z,5.03
2017-06-25T03:00:11.163Z,4.47
2017-06-25T03:02:39.414Z,4.60
2017-06-25T03:05:06.883Z,4.77
2017-06-25T03:07:35.130Z,4.73
2017-06-25T03:10:02.621Z,4.63
2017-06-25T03:12:30.095Z,4.17
2017-06-25T03:14:57.583Z,4.50
2017-06-25T03:17:25.059Z,5.33
2017-06-25T03:19:52.552Z,5.60
2017-06-25T03:22:20.035Z,4.67
2017-06-25T03:24:47.536Z,4.30
2017-06-25T03:27:15.778Z,5.03
2017-06-25T03:29:43.271Z,4.63
2017-06-25T03:32:11.515Z,4.87
2017-06-25T03:34:39.010Z,4.70
2017-06-25T03:37:06.508Z,5.30
2017-06-25T03:39:33.992Z,4.93
2017-06-25T03:42:01.475Z,4.70
2017-06-25T03:44:28.962Z,4.90
2017-06-25T03:46:56.434Z,4.73
2017-06-25T03:49:23.927Z,4.00
2017-06-25T03:51:51.398Z,5.00
2017-06-25T03:54:18.890Z,4.70
2017-06-25T03:56:46.366Z,4.47
2017-06-25T03:59:13.854Z,4.73
2017-06-25T04:01:41.348Z,4.70
2017-06-25T04:04:08.847Z,4.83
2017-06-25T04:06:36.344Z,5.17
2017-06-25T04:09:03.818Z,4.90
2017-06-25T04:11:31.307Z,5.10
2017-06-25T04:13:59.542Z,4.90
2017-06-25T04:16:27.030Z,5.27
2017-06-25T04:18:55.276Z,5.20
2017-06-25T04:21:22.772Z,4.93
2017-06-25T04:23:50.253Z,5.70
2017-06-25T04:26:17.747Z,5.30
2017-06-25T04:28:45.222Z,4.30
2017-06-25T04:31:13.480Z,4.70
2017-06-25T04:33:40.952Z,5.17
2017-06-25T04:36:09.218Z,4.23
2017-06-25T04:38:37.454Z,4.50
2017-06-25T04:41:04.948Z,5.23
2017-06-25T04:43:33.182Z,4.60
2017-06-25T04:46:00.672Z,5.07
2017-06-25T04:48:28.911Z,4.67
2017-06-25T04:50:56.404Z,4.57
2017-06-25T04:53:23.892Z,5.20
2017-06-25T04:55:51.367Z,4.60
2017-06-25T04:58:18.856Z,4.80
2017-06-25T05:00:46.331Z,5.30
2017-06-25T05:03:13.833Z,5.00
2017-06-25T05:05:41.319Z,3.90
2017-06-25T05:08:08.815Z,4.53
2017-06-25T05:10:36.287Z,4.87
2017-06-25T05:13:03.783Z,4.60
2017-06-25T05:15:31.262Z,5.17
2017-06-25T05:17:58.770Z,4.47
2017-06-25T05:20:26.251Z,4.50
2017-06-25T05:22:54.511Z,3.83
2017-06-25T05:25:22.034Z,4.77
2017-06-25T05:27:49.529Z,4.30
2017-06-25T05:30:17.010Z,4.80
2017-06-25T05:32:44.512Z,5.00
2017-06-25T05:35:11.986Z,3.90
2017-06-25T05:37:39.486Z,4.67
2017-06-25T05:40:06.970Z,4.50
2017-06-25T05:42:34.462Z,4.27
2017-06-25T05:45:01.942Z,4.97
2017-06-25T05:47:29.458Z,4.80
2017-06-25T05:49:56.944Z,4.03
2017-06-25T05:52:24.418Z,4.60
2017-06-25T05:54:51.910Z,4.10
2017-06-25T05:57:19.399Z,4.23
2017-06-25T05:59:47.662Z,4.17
2017-06-25T06:02:15.903Z,5.00
2017-06-25T06:04:43.403Z,4.20
2017-06-25T06:07:11.645Z,4.30
2017-06-25T06:09:39.142Z,4.97
2017-06-25T06:12:06.617Z,4.67
2017-06-25T06:14:34.111Z,4.90
2017-06-25T06:17:01.590Z,4.13
2017-06-25T06:19:29.847Z,4.20
2017-06-25T06:21:57.327Z,4.80
2017-06-25T06:24:24.818Z,4.40
2017-06-25T06:26:52.300Z,4.27
2017-06-25T06:29:19.806Z,4.00
2017-06-25T06:31:47.281Z,4.67
2017-06-25T06:34:14.784Z,4.60
2017-06-25T06:36:43.018Z,4.90
2017-06-25T06:39:10.523Z,5.13
2017-06-25T06:41:38.771Z,5.10
2017-06-25T06:44:06.309Z,4.53
2017-06-25T06:46:33.778Z,5.03
2017-06-25T06:49:01.251Z,4.80
2017-06-25T06:51:29.510Z,4.87
2017-06-25T06:53:56.978Z,4.60
2017-06-25T06:56:24.470Z,4.43
2017-06-25T06:58:51.934Z,4.37
2017-06-25T07:01:19.431Z,4.93
2017-06-25T07:03:46.904Z,4.17
2017-06-25T07:06:15.166Z,4.43
2017-06-25T07:08:43.406Z,4.63
2017-06-25T07:11:10.891Z,4.83
2017-06-25T07:13:39.122Z,4.00
2017-06-25T07:16:06.617Z,4.53
2017-06-25T07:18:34.091Z,4.70
2017-06-25T07:21:01.578Z,5.13
2017-06-25T07:23:29.063Z,5.00
2017-06-25T07:25:56.554Z,6.83
2017-06-25T07:28:24.026Z,5.33
2017-06-25T07:30:51.510Z,4.10
2017-06-25T07:33:18.991Z,4.90
2017-06-25T07:35:46.483Z,5.03
2017-06-25T07:38:13.955Z,4.67
2017-06-25T07:40:41.461Z,4.67
2017-06-25T07:43:09.704Z,4.43
2017-06-25T07:45:37.173Z,4.73
2017-06-25T07:48:04.666Z,4.73
2017-06-25T07:50:32.130Z,4.80
2017-06-25T07:52:59.619Z,4.97
2017-06-25T07:55:27.091Z,5.27
2017-06-25T07:57:54.579Z,4.87
2017-06-25T08:00:22.814Z,4.80
2017-06-25T08:02:50.315Z,4.03
2017-06-25T08:05:17.789Z,4.30
2017-06-25T08:07:45.286Z,4.93
2017-06-25T08:10:12.758Z,4.60
2017-06-25T08:12:41.024Z,4.73
2017-06-25T08:15:08.497Z,4.20
2017-06-25T08:17:35.982Z,5.60
2017-06-25T08:20:03.463Z,4.20
2017-06-25T08:22:30.951Z,4.17
2017-06-25T08:24:59.194Z,4.33
2017-06-25T08:27:26.678Z,4.40
2017-06-25T08:29:54.914Z,4.50
2017-06-25T08:32:22.424Z,4.17
2017-06-25T08:34:49.894Z,4.10
2017-06-25T08:37:17.375Z,4.40
2017-06-25T08:39:44.866Z,4.50
2017-06-25T08:42:13.107Z,3.90
2017-06-25T08:44:40.602Z,4.17
2017-06-25T08:47:08.109Z,4.63
2017-06-25T08:49:35.606Z,4.27
2017-06-25T08:52:03.851Z,4.13
2017-06-25T08:54:31.780Z,4.13
2017-06-25T08:56:59.260Z,4.60
2017-06-25T08:59:26.752Z,3.80
2017-06-25T09:01:55.016Z,4.60
2017-06-25T09:04:23.272Z,4.30
2017-06-25T09:06:50.762Z,3.67
2017-06-25T09:09:18.258Z,4.20
2017-06-25T09:11:45.730Z,4.17
2017-06-25T09:14:13.219Z,4.40
2017-06-25T09:16:41.463Z,4.37
2017-06-25T09:19:08.971Z,4.10
2017-06-25T09:21:36.442Z,4.40
2017-06-25T09:24:03.935Z,4.53
2017-06-25T09:26:31.405Z,3.97
2017-06-25T09:28:59.674Z,4.30
2017-06-25T09:31:27.910Z,4.40
2017-06-25T09:33:55.399Z,4.10
2017-06-25T09:36:22.887Z,4.40
2017-06-25T09:38:50.362Z,4.17
2017-06-25T09:41:17.855Z,4.10
2017-06-25T09:43:45.331Z,3.80
2017-06-25T09:46:13.587Z,4.83
2017-06-25T09:48:41.859Z,4.20
2017-06-25T09:51:10.119Z,4.30
2017-06-25T09:53:37.586Z,4.00
2017-06-25T09:56:05.843Z,3.77
2017-06-25T09:58:33.314Z,3.73
2017-06-25T10:01:01.570Z,4.63
2017-06-25T10:03:29.044Z,4.30
2017-06-25T10:05:57.297Z,3.70
2017-06-25T10:08:24.770Z,4.77
2017-06-25T10:10:53.018Z,4.07
2017-06-25T10:13:20.502Z,4.07
2017-06-25T10:15:48.755Z,4.97
2017-06-25T10:18:16.243Z,3.73
2017-06-25T10:20:43.730Z,4.27
2017-06-25T10:23:11.202Z,3.77
2017-06-25T10:25:38.714Z,3.63
2017-06-25T10:28:06.192Z,4.50
2017-06-25T10:30:33.675Z,4.93
2017-06-25T10:33:01.167Z,4.03
2017-06-25T10:35:28.642Z,3.80
2017-06-25T10:37:56.127Z,3.73
2017-06-25T10:40:23.606Z,3.40
2017-06-25T10:42:51.103Z,3.63
2017-06-25T10:45:18.575Z,3.77
2017-06-25T10:47:46.075Z,3.40
2017-06-25T10:50:13.551Z,3.30
2017-06-25T10:52:41.046Z,3.43
2017-06-25T10:55:08.520Z,3.33
2017-06-25T10:57:36.056Z,2.87
2017-06-25T11:00:03.530Z,2.60
2017-06-25T11:02:31.025Z,3.07
2017-06-25T11:04:59.267Z,3.20
2017-06-25T11:07:26.762Z,3.63
2017-06-25T11:09:54.237Z,3.13
2017-06-25T11:12:21.730Z,3.47
2017-06-25T11:14:49.214Z,3.10
2017-06-25T11:17:16.707Z,2.90
2017-06-25T11:19:44.171Z,3.13
2017-06-25T11:22:11.642Z,3.43
2017-06-25T11:24:39.130Z,2.50
2017-06-25T11:27:07.369Z,3.13
2017-06-25T11:29:34.854Z,3.63
2017-06-25T11:32:03.091Z,2.83
2017-06-25T11:34:30.774Z,2.90
2017-06-25T11:36:59.015Z,3.10
2017-06-25T11:39:26.506Z,3.77
2017-06-25T11:41:54.749Z,2.80
2017-06-25T11:44:22.238Z,3.00
2017-06-25T11:46:49.719Z,3.43
2017-06-25T11:49:17.214Z,3.03
2017-06-25T11:51:44.691Z,3.43
2017-06-25T11:54:12.955Z,2.80
2017-06-25T11:56:40.435Z,3.10
2017-06-25T11:59:08.687Z,3.10
2017-06-25T12:01:36.161Z,2.60
2017-06-25T12:04:04.418Z,2.20
2017-06-25T12:06:32.654Z,2.20
2017-06-25T12:09:00.142Z,1.90
2017-06-25T12:11:27.618Z,2.00
2017-06-25T12:13:55.115Z,2.43
2017-06-25T12:16:22.592Z,2.13
2017-06-25T12:18:50.098Z,2.50
2017-06-25T12:21:17.570Z,2.10
2017-06-25T12:23:45.047Z,2.80
2017-06-25T12:26:12.535Z,1.80
2017-06-25T12:28:40.010Z,1.97
2017-06-25T12:31:07.498Z,2.27
2017-06-25T12:33:34.970Z,3.10
2017-06-25T12:36:02.463Z,1.90
2017-06-25T12:38:29.939Z,2.83
2017-06-25T12:40:57.426Z,2.10
2017-06-25T12:43:24.896Z,3.23
2017-06-25T12:45:52.382Z,2.20
2017-06-25T12:48:19.856Z,2.40
2017-06-25T12:50:47.347Z,1.90
2017-06-25T12:53:14.815Z,2.67
2017-06-25T12:55:42.302Z,2.33
2017-06-25T12:58:09.770Z,2.17
2017-06-25T13:00:37.266Z,2.70
2017-06-25T13:03:04.766Z,2.90
2017-06-25T13:05:32.254Z,4.07
2017-06-25T13:07:59.739Z,3.37
2017-06-25T13:10:27.227Z,2.90
2017-06-25T13:12:54.698Z,5.60
2017-06-25T13:15:22.173Z,3.60
2017-06-25T13:17:49.665Z,7.33
2017-06-25T13:20:17.914Z,3.60
2017-06-25T13:22:45.407Z,3.60
2017-06-25T13:25:13.642Z,3.53
2017-06-25T13:27:41.138Z,3.83
2017-06-25T13:30:09.371Z,3.03
2017-06-25T13:32:36.858Z,2.53
2017-06-25T13:35:05.102Z,8.20
2017-06-25T13:37:32.594Z,4.50
2017-06-25T13:40:00.835Z,2.53
2017-06-25T13:42:28.319Z,2.83
2017-06-25T13:44:56.563Z,3.13
2017-06-25T13:47:24.064Z,2.27
2017-06-25T13:49:51.537Z,3.03
2017-06-25T13:52:19.026Z,3.57
2017-06-25T13:54:46.493Z,2.80
2017-06-25T13:57:13.987Z,3.23
2017-06-25T13:59:41.462Z,2.90
2017-06-25T14:02:08.968Z,2.50
2017-06-25T14:04:37.206Z,2.70
2017-06-25T14:07:04.702Z,2.77
2017-06-25T14:09:32.938Z,2.53
2017-06-25T14:12:00.415Z,2.50
2017-06-25T14:14:27.906Z,2.80
2017-06-25T14:16:55.382Z,6.23
2017-06-25T14:19:22.895Z,3.30
2017-06-25T14:21:51.135Z,2.87
2017-06-25T14:24:18.622Z,2.70
2017-06-25T14:26:46.856Z,2.90
2017-06-25T14:29:14.402Z,2.63
2017-06-25T14:31:41.900Z,2.87
2017-06-25T14:34:10.158Z,2.60
2017-06-25T14:36:37.634Z,3.10
2017-06-25T14:39:05.127Z,2.50
2017-06-25T14:41:32.602Z,2.50
2017-06-25T14:44:00.091Z,2.37
2017-06-25T14:46:27.567Z,2.47
2017-06-25T14:48:55.052Z,2.93
2017-06-25T14:51:22.527Z,2.87
2017-06-25T14:53:50.016Z,2.87
2017-06-25T14:56:17.492Z,3.70
2017-06-25T14:58:44.989Z,2.63
2017-06-25T15:01:12.486Z,3.10
2017-06-25T15:03:39.979Z,2.40
2017-06-25T15:06:07.450Z,3.37
2017-06-25T15:08:34.930Z,2.57
2017-06-25T15:11:03.186Z,2.93
2017-06-25T15:13:30.658Z,2.70
2017-06-25T15:15:58.929Z,2.40
2017-06-25T15:18:27.179Z,2.80
2017-06-25T15:20:54.662Z,3.30
2017-06-25T15:23:22.898Z,2.53
2017-06-25T15:25:50.386Z,2.53
2017-06-25T15:28:18.630Z,2.60
2017-06-25T15:30:46.116Z,2.70
2017-06-25T15:33:14.354Z,2.87
2017-06-25T15:35:41.881Z,2.60
2017-06-25T15:38:09.359Z,2.53
2017-06-25T15:40:36.848Z,2.20
2017-06-25T15:43:05.101Z,2.50
2017-06-25T15:45:32.594Z,11.13
2017-06-25T15:48:00.068Z,2.57
2017-06-25T15:50:27.564Z,2.30
2017-06-25T15:52:55.044Z,2.40
2017-06-25T15:55:23.298Z,2.50
2017-06-25T15:57:50.770Z,2.53
2017-06-25T16:00:19.036Z,2.50
2017-06-25T16:02:47.278Z,2.93
2017-06-25T16:05:14.746Z,2.63
2017-06-25T16:07:42.231Z,2.80
2017-06-25T16:10:10.466Z,2.10
2017-06-25T16:12:37.958Z,2.83
2017-06-25T16:15:06.198Z,2.50
2017-06-25T16:17:33.682Z,2.30
2017-06-25T16:20:01.923Z,2.43
2017-06-25T16:22:29.410Z,2.40
2017-06-25T16:24:56.882Z,1.97
2017-06-25T16:27:24.380Z,2.97
2017-06-25T16:29:51.846Z,2.37
2017-06-25T16:32:19.349Z,2.30
2017-06-25T16:34:46.819Z,2.57
2017-06-25T16:37:14.306Z,2.37
2017-06-25T16:39:41.778Z,2.27
2017-06-25T16:42:10.033Z,2.90
2017-06-25T16:44:37.501Z,2.60
2017-06-25T16:47:04.993Z,2.70
2017-06-25T16:49:32.539Z,2.27
2017-06-25T16:52:00.059Z,2.37
2017-06-25T16:54:27.530Z,2.30
2017-06-25T16:56:55.818Z,2.30
2017-06-25T16:59:23.291Z,2.60
2017-06-25T17:01:50.762Z,2.00
2017-06-25T17:04:18.246Z,2.23
2017-06-25T17:06:45.714Z,2.80
2017-06-25T17:09:13.198Z,3.00
2017-06-25T17:11:40.675Z,2.87
2017-06-25T17:14:08.162Z,2.30
2017-06-25T17:16:35.636Z,2.53
2017-06-25T17:19:03.893Z,3.33
2017-06-25T17:21:31.366Z,2.50
2017-06-25T17:23:59.618Z,3.90
2017-06-25T17:26:27.095Z,3.93
2017-06-25T17:28:55.346Z,2.30
2017-06-25T17:31:22.822Z,2.60
2017-06-25T17:33:51.079Z,2.20
2017-06-25T17:36:18.557Z,2.33
2017-06-25T17:38:46.915Z,1.90
2017-06-25T17:41:15.150Z,2.30
2017-06-25T17:43:42.645Z,3.30
2017-06-25T17:46:10.903Z,2.30
2017-06-25T17:48:38.390Z,2.50
2017-06-25T17:51:05.863Z,2.83
2017-06-25T17:53:33.354Z,2.37
2017-06-25T17:56:00.827Z,2.43
2017-06-25T17:58:28.338Z,2.43
2017-06-25T18:00:55.810Z,2.77
2017-06-25T18:03:23.282Z,2.40
2017-06-25T18:05:50.777Z,2.17
2017-06-25T18:08:18.245Z,2.57
2017-06-25T18:10:45.738Z,2.57
2017-06-25T18:13:13.220Z,2.80
2017-06-25T18:15:40.712Z,2.43
2017-06-25T18:18:08.182Z,2.37
2017-06-25T18:20:35.709Z,2.67
2017-06-25T18:23:03.178Z,2.60
2017-06-25T18:25:30.675Z,2.87
2017-06-25T18:27:58.142Z,2.40
2017-06-25T18:30:26.395Z,2.40
2017-06-25T18:32:53.871Z,2.20
2017-06-25T18:35:22.137Z,2.33
2017-06-25T18:37:50.395Z,2.13
2017-06-25T18:40:17.887Z,2.70
2017-06-25T18:42:46.119Z,2.50
2017-06-25T18:45:13.610Z,2.47
2017-06-25T18:47:41.854Z,2.53
2017-06-25T18:50:09.360Z,1.80
2017-06-25T18:52:36.830Z,2.33
2017-06-25T18:55:04.302Z,2.67
2017-06-25T18:57:31.794Z,2.40
2017-06-25T19:00:00.036Z,2.33
2017-06-25T19:02:27.529Z,2.10
2017-06-25T19:04:55.021Z,2.23
2017-06-25T19:07:22.508Z,2.30
2017-06-25T19:09:49.991Z,2.60
2017-06-25T19:12:18.246Z,2.40
2017-06-25T19:14:46.494Z,3.03
2017-06-25T19:17:13.987Z,2.80
2017-06-25T19:19:42.235Z,2.30
2017-06-25T19:22:09.726Z,2.60
2017-06-25T19:24:37.204Z,2.10
2017-06-25T19:27:04.699Z,3.57
2017-06-25T19:29:32.170Z,2.70
2017-06-25T19:32:00.434Z,2.57
2017-06-25T19:34:27.914Z,3.03
2017-06-25T19:36:55.403Z,2.30
2017-06-25T19:39:22.896Z,2.50
2017-06-25T19:41:50.394Z,3.10
2017-06-25T19:44:17.871Z,2.90
2017-06-25T19:46:45.346Z,2.40
2017-06-25T19:49:12.831Z,2.60
2017-06-25T19:51:41.071Z,2.90
2017-06-25T19:54:08.562Z,2.40
2017-06-25T19:56:36.806Z,2.80
2017-06-25T19:59:04.302Z,3.30
2017-06-25T20:01:31.782Z,1.90
2017-06-25T20:03:59.284Z,3.20
2017-06-25T20:06:27.530Z,3.17
2017-06-25T20:08:55.014Z,2.77
2017-06-25T20:11:23.256Z,3.47
2017-06-25T20:13:50.761Z,2.77
2017-06-25T20:16:18.234Z,2.87
2017-06-25T20:18:45.728Z,2.13
2017-06-25T20:21:13.200Z,2.30
2017-06-25T20:23:40.690Z,2.30
2017-06-25T20:26:08.162Z,2.90
2017-06-25T20:28:35.666Z,2.47
2017-06-25T20:31:03.145Z,2.10
2017-06-25T20:33:30.634Z,2.60
2017-06-25T20:35:58.107Z,3.07
2017-06-25T20:38:25.620Z,3.57
2017-06-25T20:40:53.096Z,2.60
2017-06-25T20:43:20.575Z,2.50
2017-06-25T20:45:48.076Z,2.83
2017-06-25T20:48:15.554Z,2.50
2017-06-25T20:50:43.050Z,2.80
2017-06-25T20:53:10.522Z,2.33
2017-06-25T20:55:38.783Z,3.50
2017-06-25T20:58:06.268Z,2.10
2017-06-25T21:00:33.771Z,2.43
2017-06-25T21:03:01.249Z,2.37
2017-06-25T21:05:29.522Z,2.27
2017-06-25T21:07:57.764Z,2.27
2017-06-25T21:10:25.264Z,2.43
2017-06-25T21:12:53.506Z,2.83
2017-06-25T21:15:21.026Z,2.23
2017-06-25T21:17:48.511Z,2.20
2017-06-25T21:20:16.004Z,2.40
2017-06-25T21:22:43.480Z,2.73
2017-06-25T21:25:10.973Z,2.67
2017-06-25T21:27:38.459Z,2.20
2017-06-25T21:30:06.710Z,2.20
2017-06-25T21:32:34.972Z,2.20
2017-06-25T21:35:02.480Z,1.97
2017-06-25T21:37:29.959Z,2.20
2017-06-25T21:39:57.439Z,2.20
2017-06-25T21:42:24.934Z,2.40
2017-06-25T21:44:52.415Z,1.90
2017-06-25T21:47:19.908Z,2.10
2017-06-25T21:49:47.378Z,2.30
2017-06-25T21:52:14.881Z,2.27
2017-06-25T21:54:42.359Z,2.63
2017-06-25T21:57:09.846Z,2.27
2017-06-25T21:59:38.096Z,2.93
2017-06-25T22:02:05.588Z,2.17
2017-06-25T22:04:33.058Z,2.63
2017-06-25T22:07:00.547Z,2.30
2017-06-25T22:09:28.014Z,2.53
2017-06-25T22:11:55.499Z,2.00
2017-06-25T22:14:23.739Z,2.50
2017-06-25T22:16:51.234Z,2.17
2017-06-25T22:19:18.707Z,2.33
2017-06-25T22:21:46.196Z,2.00
2017-06-25T22:24:13.682Z,2.20
2017-06-25T22:26:41.172Z,2.10
2017-06-25T22:29:08.646Z,2.00
2017-06-25T22:31:36.122Z,2.53
2017-06-25T22:34:03.611Z,1.93
2017-06-25T22:36:31.846Z,2.27
2017-06-25T22:38:59.338Z,1.83
2017-06-25T22:41:26.821Z,1.90
2017-06-25T22:43:54.318Z,1.50
2017-06-25T22:46:21.786Z,2.40
2017-06-25T22:48:49.279Z,2.13
2017-06-25T22:51:16.759Z,2.20
2017-06-25T22:53:44.258Z,2.00
2017-06-25T22:56:12.501Z,2.03
2017-06-25T22:58:40.001Z,2.40
2017-06-25T23:01:07.475Z,2.33
2017-06-25T23:03:34.971Z,1.60
2017-06-25T23:06:02.450Z,2.00
2017-06-25T23:08:30.714Z,2.17
2017-06-25T23:10:58.961Z,1.90
2017-06-25T23:13:26.456Z,1.77
2017-06-25T23:15:53.931Z,2.30
2017-06-25T23:18:21.431Z,1.90
2017-06-25T23:20:48.913Z,1.97
2017-06-25T23:23:17.187Z,2.17
2017-06-25T23:25:45.424Z,1.80
2017-06-25T23:28:12.900Z,2.30
2017-06-25T23:30:40.391Z,2.10
2017-06-25T23:33:07.875Z,1.80
2017-06-25T23:35:35.367Z,2.10
2017-06-25T23:38:03.610Z,2.10
2017-06-25T23:40:31.105Z,2.33
2017-06-25T23:42:59.343Z,2.00
2017-06-25T23:45:26.974Z,1.90
2017-06-25T23:47:54.451Z,2.00
2017-06-25T23:50:21.943Z,2.30
2017-06-25T23:52:50.184Z,1.70
2017-06-25T23:55:17.674Z,1.80
2017-06-25T23:57:45.159Z,1.80
